TimeEDT,TemperatureF,Dew PointF,Humidity,Sea Level PressureIn,VisibilityMPH,Wind Direction,Wind SpeedMPH,Gust SpeedMPH,PrecipitationIn,Events,Conditions,WindDirDegrees,DateUTC
12:51 AM,55.9,55.0,97,29.88,10.0,Calm,Calm,-,N/A,,Clear,0,2013-09-05 04:51:00
1:51 AM,57.0,55.0,93,29.87,10.0,Calm,Calm,-,N/A,,Overcast,0,2013-09-05 05:51:00
2:51 AM,57.9,55.9,93,29.88,10.0,Calm,Calm,-,N/A,,Overcast,0,2013-09-05 06:51:00
3:51 AM,57.9,57.0,97,29.86,10.0,Calm,Calm,-,0.00,Rain,Light Rain,0,2013-09-05 07:51:00
4:51 AM,59.0,57.0,93,29.87,10.0,Calm,Calm,-,0.00,,Mostly Cloudy,0,2013-09-05 08:51:00
5:51 AM,57.0,57.0,100,29.89,10.0,ENE,3.5,-,N/A,,Scattered Clouds,70,2013-09-05 09:51:00
6:51 AM,57.9,57.0,97,29.91,10.0,NW,3.5,-,N/A,,Mostly Cloudy,320,2013-09-05 10:51:00
7:33 AM,59.0,57.2,94,29.93,10.0,NNW,6.9,-,N/A,,Mostly Cloudy,330,2013-09-05 11:33:00
7:51 AM,60.1,57.0,90,29.94,10.0,NNW,6.9,-,N/A,,Overcast,330,2013-09-05 11:51:00
8:51 AM,60.1,55.0,83,29.97,10.0,NNW,10.4,-,N/A,,Overcast,330,2013-09-05 12:51:00
9:51 AM,61.0,54.0,78,29.98,10.0,NW,9.2,-,N/A,,Scattered Clouds,320,2013-09-05 13:51:00
10:51 AM,62.1,48.0,60,30.00,10.0,NW,9.2,-,N/A,,Clear,320,2013-09-05 14:51:00
11:51 AM,64.0,42.1,45,30.00,10.0,NW,9.2,-,N/A,,Clear,320,2013-09-05 15:51:00
12:51 PM,64.9,42.1,43,30.00,10.0,Variable,4.6,-,N/A,,Clear,0,2013-09-05 16:51:00
1:51 PM,69.1,41.0,36,29.99,10.0,Variable,4.6,-,N/A,,Clear,0,2013-09-05 17:51:00
2:51 PM,70.0,39.0,32,29.99,10.0,NW,12.7,17.3,N/A,,Partly Cloudy,310,2013-09-05 18:51:00
3:51 PM,69.1,37.0,31,30.01,10.0,WNW,10.4,-,N/A,,Scattered Clouds,300,2013-09-05 19:51:00
4:51 PM,68.0,36.0,31,30.02,10.0,NW,12.7,-,N/A,,Clear,320,2013-09-05 20:51:00
5:51 PM,64.9,37.0,36,30.04,10.0,NW,10.4,-,N/A,,Partly Cloudy,320,2013-09-05 21:51:00
6:51 PM,61.0,39.9,46,30.06,10.0,NNW,5.8,-,N/A,,Clear,340,2013-09-05 22:51:00
7:51 PM,55.9,43.0,62,30.08,10.0,NNW,3.5,-,N/A,,Clear,330,2013-09-05 23:51:00
8:51 PM,53.1,42.1,66,30.11,10.0,NNW,4.6,-,N/A,,Clear,330,2013-09-06 00:51:00
9:51 PM,50.0,45.0,83,30.14,10.0,Calm,Calm,-,N/A,,Clear,0,2013-09-06 01:51:00
10:51 PM,46.9,44.1,90,30.16,10.0,NNW,4.6,-,N/A,,Clear,330,2013-09-06 02:51:00
11:51 PM,44.1,43.0,96,30.17,10.0,Calm,Calm,-,N/A,,Clear,0,2013-09-06 03:51:00